createdAt,value
2023-04-17T06:20:54.919Z,6.36
2023-04-17T06:30:55.066Z,6.58
2023-04-17T06:40:54.975Z,6.84
2023-04-17T06:50:54.974Z,7.25
2023-04-17T07:00:55.068Z,7.61
2023-04-17T07:10:54.864Z,8.11
2023-04-17T07:20:54.987Z,8.66
2023-04-17T07:30:55.114Z,8.68
2023-04-17T07:40:55.090Z,9.35
2023-04-17T07:50:55.069Z,9.43
2023-04-17T08:00:55.117Z,9.78
2023-04-17T08:10:55.064Z,9.65
2023-04-17T08:20:55.006Z,9.52
2023-04-17T08:30:55.195Z,9.59
2023-04-17T08:40:55.264Z,9.70
2023-04-17T08:50:55.430Z,10.45
2023-04-17T09:00:55.440Z,11.54
2023-04-17T09:10:55.530Z,11.02
2023-04-17T09:20:55.407Z,10.78
2023-04-17T09:30:55.510Z,11.00
2023-04-17T09:40:55.286Z,10.80
2023-04-17T09:50:55.503Z,10.85
2023-04-17T10:00:55.518Z,11.41
2023-04-17T10:10:55.481Z,11.42
2023-04-17T10:20:55.297Z,11.39
2023-04-17T10:30:55.620Z,11.64
2023-04-17T10:40:55.552Z,11.70
2023-04-17T10:50:55.429Z,11.81
2023-04-17T11:00:55.719Z,12.70
2023-04-17T11:10:55.308Z,12.29
2023-04-17T11:20:55.480Z,12.30
2023-04-17T11:30:55.317Z,12.70
2023-04-17T11:40:55.413Z,13.04
2023-04-17T11:50:56.421Z,13.12
2023-04-17T12:00:55.388Z,13.53
2023-04-17T12:10:55.463Z,13.90
2023-04-17T12:20:55.617Z,13.27
2023-04-17T12:30:55.630Z,13.00
2023-04-17T12:40:55.709Z,12.79
2023-04-17T12:50:55.837Z,12.80
2023-04-17T13:00:55.832Z,13.41
2023-04-17T13:10:55.748Z,13.05
2023-04-17T13:20:55.717Z,14.13
2023-04-17T13:30:55.838Z,13.80
2023-04-17T13:40:55.930Z,14.06
2023-04-17T13:50:55.915Z,14.27
2023-04-17T14:00:55.777Z,13.32
2023-04-17T14:10:55.983Z,13.79
2023-04-17T14:20:55.813Z,14.12
2023-04-17T14:30:55.801Z,14.34
2023-04-17T14:40:55.925Z,14.27
2023-04-17T14:50:56.063Z,13.87
2023-04-17T15:00:56.032Z,14.16
2023-04-17T15:10:56.086Z,14.38
2023-04-17T15:20:56.096Z,13.93
2023-04-17T15:30:56.144Z,14.06
2023-04-17T15:40:55.926Z,14.05
2023-04-17T15:50:56.026Z,14.24
2023-04-17T16:00:56.077Z,14.03
2023-04-17T16:10:55.985Z,13.77
2023-04-17T16:20:55.986Z,13.58
2023-04-17T16:30:56.105Z,13.41
2023-04-17T16:40:56.094Z,13.52
2023-04-17T16:50:56.098Z,12.85
2023-04-17T17:00:56.160Z,12.58
2023-04-17T17:10:55.963Z,12.19
2023-04-17T17:20:56.225Z,11.61
2023-04-17T17:30:55.902Z,11.09
2023-04-17T17:40:55.995Z,10.71
2023-04-17T17:50:56.024Z,10.33
2023-04-17T18:00:56.273Z,9.87
2023-04-17T18:10:56.048Z,9.28
2023-04-17T18:20:56.141Z,8.75
2023-04-17T18:30:56.108Z,8.43
2023-04-17T18:40:56.107Z,8.05
2023-04-17T18:50:56.087Z,7.73
2023-04-17T19:00:56.211Z,7.63
2023-04-17T19:10:56.263Z,7.30
2023-04-17T19:20:56.118Z,7.20
